KELZ/ELZ METAR and TAF weather

Enter ICAO airport designator
Station Type Date Time Source
KELZ METAR 2024/06/16 08:56 UTC NOAA

KELZ 160856Z AUTO 00000KT 10SM CLR 09/08 A3024 RMK AO2 SLP239 T00940078 53009


Station Type Date Time Source
KELZ Decoded METAR 2024/06/16 08:56 UTC NOAA

WELLSVILLE MUNICIPAL AIRPORT, NY, United States (KELZ) 42-06N 077-60W 646M
Jun 16, 2024 - 04:56 AM EDT / 2024.06.16 0856 UTC
Wind: Calm:0
Visibility: 10 mile(s):0
Sky conditions: clear
Temperature: 48.9 F (9.4 C)
Dew Point: 46.0 F (7.8 C)
Relative Humidity: 89%
Pressure (altimeter): 30.24 in. Hg (1024 hPa)
Pressure tendency: 0.03 inches (0.9 hPa) higher than three hours ago
ob: KELZ 160856Z AUTO 00000KT 10SM CLR 09/08 A3024 RMK AO2 SLP239 T00940078 53009
cycle: 9

Station Type Date Time Source
KELZ TAF UTC NOAA

Error!

Example: see airport list